createdAt,value
2022-09-01T00:04:58.675Z,16.06
2022-09-01T00:10:02.909Z,16.15
2022-09-01T00:15:07.684Z,16.01
2022-09-01T00:20:13.429Z,15.91
2022-09-01T00:25:20.169Z,16.03
2022-09-01T00:30:23.145Z,15.86
2022-09-01T00:35:27.256Z,15.86
2022-09-01T00:40:29.954Z,15.90
2022-09-01T00:45:33.278Z,15.74
2022-09-01T00:50:37.954Z,15.96
2022-09-01T00:55:40.618Z,15.89
2022-09-01T01:00:44.043Z,15.99
2022-09-01T01:05:53.816Z,15.85
2022-09-01T01:10:56.435Z,15.86
2022-09-01T01:15:59.970Z,15.79
2022-09-01T01:21:23.244Z,15.48
2022-09-01T01:26:27.247Z,15.41
2022-09-01T01:31:30.159Z,15.35
2022-09-01T01:36:36.719Z,15.41
2022-09-01T01:41:45.390Z,15.22
2022-09-01T01:46:51.978Z,15.36
2022-09-01T01:51:56.019Z,15.13
2022-09-01T01:57:04.334Z,14.86
2022-09-01T02:02:09.706Z,15.13
2022-09-01T02:07:13.568Z,15.10
2022-09-01T02:12:19.425Z,14.92
2022-09-01T02:17:22.983Z,14.81
2022-09-01T02:22:25.843Z,14.89
2022-09-01T02:27:29.814Z,14.94
2022-09-01T02:32:32.508Z,14.71
2022-09-01T02:37:35.316Z,14.81
2022-09-01T02:42:43.458Z,14.95
2022-09-01T02:47:48.420Z,14.89
2022-09-01T02:52:53.198Z,14.73
2022-09-01T02:57:58.896Z,14.68
2022-09-01T03:03:02.635Z,14.60
2022-09-01T03:08:10.351Z,14.47
2022-09-01T03:13:16.852Z,14.30
2022-09-01T03:18:19.800Z,14.27
2022-09-01T03:23:25.223Z,14.27
2022-09-01T03:28:29.792Z,14.15
2022-09-01T03:33:33.652Z,14.01
2022-09-01T03:38:36.974Z,14.10
2022-09-01T03:43:46.904Z,14.04
2022-09-01T03:48:52.775Z,13.94
2022-09-01T03:53:56.800Z,13.83
2022-09-01T03:59:01.720Z,13.68
2022-09-01T04:04:04.995Z,13.41
2022-09-01T04:09:10.799Z,13.45
2022-09-01T04:14:15.964Z,13.36
2022-09-01T04:19:25.333Z,13.44
2022-09-01T04:24:31.021Z,13.28
2022-09-01T04:29:35.880Z,13.09
2022-09-01T04:34:41.711Z,12.89
2022-09-01T04:39:55.636Z,13.05
2022-09-01T04:45:10.102Z,13.20
2022-09-01T04:50:17.108Z,12.97
2022-09-01T04:55:34.924Z,12.97
2022-09-01T05:00:38.985Z,13.06
2022-09-01T05:05:43.683Z,13.06
2022-09-01T05:10:48.908Z,13.15
2022-09-01T05:16:07.465Z,13.03
2022-09-01T05:21:11.077Z,13.06
2022-09-01T05:26:17.856Z,13.19
2022-09-01T05:31:22.889Z,13.27
2022-09-01T05:36:26.722Z,13.34
2022-09-01T05:41:33.725Z,13.56
2022-09-01T05:46:39.772Z,13.73
2022-09-01T05:51:50.951Z,13.80
2022-09-01T05:56:57.772Z,13.98
2022-09-01T06:02:08.894Z,14.01
2022-09-01T06:07:16.374Z,14.19
2022-09-01T06:12:23.420Z,14.29
2022-09-01T06:17:30.000Z,14.48
2022-09-01T06:22:37.484Z,14.65
2022-09-01T06:27:41.145Z,14.79
2022-09-01T06:32:45.615Z,14.92
2022-09-01T06:37:49.210Z,15.12
2022-09-01T06:43:09.204Z,15.16
2022-09-01T06:48:17.792Z,15.27
2022-09-01T06:53:37.257Z,15.33
2022-09-01T06:58:44.922Z,15.64
2022-09-01T07:03:51.901Z,15.62
2022-09-01T07:09:38.513Z,15.68
2022-09-01T07:20:24.567Z,16.18
2022-09-01T07:25:34.927Z,16.32
2022-09-01T07:37:16.167Z,16.69
2022-09-01T07:47:57.951Z,16.98
2022-09-01T07:53:02.827Z,17.29
2022-09-01T07:58:06.508Z,17.35
2022-09-01T08:03:09.329Z,17.66
2022-09-01T08:08:23.711Z,17.81
2022-09-01T08:13:28.836Z,18.09
2022-09-01T08:18:48.188Z,18.12
2022-09-01T08:24:01.491Z,18.23
2022-09-01T08:29:05.332Z,18.53
2022-09-01T08:34:12.545Z,18.70
2022-09-01T08:39:16.480Z,18.76
2022-09-01T08:44:25.931Z,19.02
2022-09-01T08:49:29.653Z,19.25
2022-09-01T08:55:05.487Z,19.47
2022-09-01T09:00:11.083Z,19.58
2022-09-01T09:05:22.962Z,19.54
2022-09-01T09:10:29.925Z,19.75
2022-09-01T09:15:40.022Z,19.98
2022-09-01T09:20:43.422Z,20.08
2022-09-01T09:25:47.332Z,20.27
2022-09-01T09:30:50.048Z,20.57
2022-09-01T09:35:54.296Z,20.49
2022-09-01T09:41:16.375Z,20.84
2022-09-01T09:46:29.402Z,20.85
2022-09-01T09:51:32.027Z,21.27
2022-09-01T09:56:36.148Z,21.31
2022-09-01T10:01:38.809Z,21.55
2022-09-01T10:06:45.882Z,22.18
2022-09-01T10:11:53.891Z,22.37
2022-09-01T10:17:01.667Z,22.44
2022-09-01T10:22:06.430Z,22.45
2022-09-01T10:27:15.513Z,22.68
2022-09-01T10:32:37.036Z,22.66
2022-09-01T10:37:42.874Z,22.69
2022-09-01T10:42:55.243Z,21.84
2022-09-01T10:48:33.367Z,22.73
2022-09-01T10:53:40.907Z,22.62
2022-09-01T11:04:15.650Z,21.78
2022-09-01T11:09:24.935Z,21.80
2022-09-01T11:14:29.230Z,21.55
2022-09-01T11:19:37.770Z,21.91
2022-09-01T11:25:12.961Z,22.53
2022-09-01T11:30:19.651Z,22.70
2022-09-01T11:35:24.658Z,22.87
2022-09-01T11:40:32.350Z,23.32
2022-09-01T11:45:39.534Z,22.73
2022-09-01T11:50:43.117Z,22.56
2022-09-01T11:55:48.827Z,22.67
2022-09-01T12:00:52.726Z,22.36
2022-09-01T12:06:01.123Z,22.18
2022-09-01T12:11:06.053Z,23.20
2022-09-01T12:16:18.362Z,23.80
2022-09-01T12:21:23.952Z,23.77
2022-09-01T12:26:27.931Z,23.14
2022-09-01T12:31:31.917Z,23.89
2022-09-01T12:36:35.881Z,23.38
2022-09-01T12:41:40.489Z,23.65
2022-09-01T12:46:46.728Z,23.10
2022-09-01T12:51:49.558Z,23.29
2022-09-01T12:56:52.304Z,23.14
2022-09-01T13:01:56.437Z,22.98
2022-09-01T13:07:04.436Z,23.33
2022-09-01T13:12:16.565Z,22.89
2022-09-01T13:17:20.835Z,23.81
2022-09-01T13:22:23.422Z,23.64
2022-09-01T13:27:26.308Z,23.93
2022-09-01T13:32:30.836Z,23.93
2022-09-01T13:37:33.723Z,24.01
2022-09-01T13:42:36.524Z,24.15
2022-09-01T13:48:15.214Z,23.91
2022-09-01T13:53:03.248Z,24.29
2022-09-01T13:58:08.723Z,24.12
2022-09-01T14:03:15.676Z,24.42
2022-09-01T14:08:20.886Z,24.49
2022-09-01T14:13:25.481Z,24.19
2022-09-01T14:18:36.755Z,24.18
2022-09-01T14:23:39.609Z,24.29
2022-09-01T14:28:45.519Z,24.23
2022-09-01T14:33:50.031Z,24.04
2022-09-01T14:38:53.721Z,23.86
2022-09-01T14:44:02.326Z,23.68
2022-09-01T14:49:07.714Z,23.55
2022-09-01T14:54:10.361Z,23.41
2022-09-01T14:59:13.250Z,23.45
2022-09-01T15:04:17.202Z,23.43
2022-09-01T15:09:19.841Z,23.24
2022-09-01T15:14:22.585Z,22.84
2022-09-01T15:19:26.595Z,23.08
2022-09-01T15:24:29.292Z,23.12
2022-09-01T15:29:34.000Z,23.11
2022-09-01T15:34:38.321Z,23.05
2022-09-01T15:39:40.969Z,22.92
2022-09-01T15:44:43.598Z,23.12
2022-09-01T15:49:47.655Z,22.97
2022-09-01T15:54:50.301Z,22.82
2022-09-01T15:59:52.911Z,22.85
2022-09-01T16:04:57.438Z,22.74
2022-09-01T16:10:01.152Z,22.57
2022-09-01T16:15:04.511Z,22.56
2022-09-01T16:20:11.892Z,22.60
2022-09-01T16:25:19.126Z,22.42
2022-09-01T16:30:24.616Z,22.57
2022-09-01T16:35:35.836Z,22.38
2022-09-01T16:40:44.917Z,22.47
2022-09-01T16:45:56.622Z,22.26
2022-09-01T16:51:04.448Z,22.20
2022-09-01T16:56:10.782Z,22.23
2022-09-01T17:01:20.349Z,22.10
2022-09-01T17:06:32.052Z,22.02
2022-09-01T17:11:39.247Z,21.95
2022-09-01T17:16:44.294Z,21.84
2022-09-01T17:21:53.814Z,21.81
2022-09-01T17:26:58.076Z,21.69
2022-09-01T17:32:04.728Z,21.62
2022-09-01T17:37:17.547Z,21.52
2022-09-01T17:42:27.329Z,21.40
2022-09-01T17:47:37.292Z,21.27
2022-09-01T17:52:52.624Z,21.20
2022-09-01T17:58:00.057Z,21.05
2022-09-01T18:03:15.103Z,20.97
2022-09-01T18:08:30.203Z,20.79
2022-09-01T18:13:52.449Z,20.72
2022-09-01T18:18:58.831Z,20.53
2022-09-01T18:24:12.592Z,20.44
2022-09-01T18:29:15.380Z,20.25
2022-09-01T18:34:22.483Z,20.24
2022-09-01T18:39:29.657Z,20.03
2022-09-01T18:44:41.123Z,19.88
2022-09-01T18:49:53.365Z,19.89
2022-09-01T18:55:02.382Z,19.81
2022-09-01T19:00:17.880Z,19.69
2022-09-01T19:05:33.521Z,19.61
2022-09-01T19:10:42.509Z,19.32
2022-09-01T19:15:53.680Z,19.24
2022-09-01T19:20:58.849Z,19.24
2022-09-01T19:26:07.037Z,19.15
2022-09-01T19:31:17.932Z,19.14
2022-09-01T19:36:27.635Z,19.04
2022-09-01T19:41:35.380Z,19.00
2022-09-01T19:46:42.253Z,18.88
2022-09-01T19:51:51.369Z,18.73
2022-09-01T19:56:59.669Z,18.58
2022-09-01T20:02:07.192Z,18.66
2022-09-01T20:07:15.983Z,18.50
2022-09-01T20:12:30.163Z,18.49
2022-09-01T20:17:38.100Z,18.31
2022-09-01T20:22:51.141Z,18.38
2022-09-01T20:28:00.796Z,18.31
2022-09-01T20:33:06.125Z,18.15
2022-09-01T20:38:29.430Z,18.12
2022-09-01T20:43:39.985Z,18.06
2022-09-01T20:48:42.824Z,17.97
2022-09-01T20:53:56.320Z,17.93
2022-09-01T20:59:03.861Z,17.89
2022-09-01T21:04:24.502Z,17.83
2022-09-01T21:09:33.248Z,17.64
2022-09-01T21:14:46.509Z,17.63
2022-09-01T21:19:56.540Z,17.52
2022-09-01T21:24:59.341Z,17.37
2022-09-01T21:30:07.225Z,17.20
2022-09-01T21:35:12.945Z,17.41
2022-09-01T21:40:16.448Z,17.35
2022-09-01T21:45:20.720Z,17.10
2022-09-01T21:50:24.991Z,16.96
2022-09-01T21:55:27.730Z,17.01
2022-09-01T22:00:33.894Z,16.99
2022-09-01T22:05:41.735Z,16.80
2022-09-01T22:10:47.436Z,16.76
2022-09-01T22:15:53.368Z,16.83
2022-09-01T22:21:02.594Z,16.66
2022-09-01T22:26:05.930Z,16.59
2022-09-01T22:31:14.068Z,16.47
2022-09-01T22:36:21.730Z,16.45
2022-09-01T22:41:25.983Z,16.55
2022-09-01T22:46:30.727Z,16.50
2022-09-01T22:51:33.747Z,16.51
2022-09-01T22:56:38.061Z,16.43
2022-09-01T23:01:44.937Z,16.39
2022-09-01T23:06:49.479Z,16.25
2022-09-01T23:11:52.439Z,16.19
2022-09-01T23:16:56.579Z,16.12
2022-09-01T23:21:59.476Z,16.15
2022-09-01T23:27:03.407Z,16.06
2022-09-01T23:32:07.595Z,15.97
2022-09-01T23:37:10.574Z,15.89
2022-09-01T23:42:13.242Z,15.67
2022-09-01T23:47:17.459Z,15.77
2022-09-01T23:52:20.094Z,15.77
2022-09-01T23:57:22.846Z,15.64
